createdAt,value
2018-05-08T00:01:39.330Z,99694.09
2018-05-08T00:04:10.985Z,99682.73
2018-05-08T00:06:43.347Z,99685.47
2018-05-08T00:09:14.821Z,99680.55
2018-05-08T00:11:49.180Z,99680.95
2018-05-08T00:14:20.668Z,99675.77
2018-05-08T00:16:52.963Z,99670.03
2018-05-08T00:19:24.841Z,99676.17
2018-05-08T00:21:57.109Z,99672.63
2018-05-08T00:24:35.904Z,99672.61
2018-05-08T00:27:09.866Z,99670.45
2018-05-08T00:29:42.116Z,99667.28
2018-05-08T00:32:15.011Z,99660.61
2018-05-08T00:34:47.314Z,99659.79
2018-05-08T00:37:21.639Z,99653.22
2018-05-08T00:39:53.315Z,99657.86
2018-05-08T00:42:24.853Z,99661.29
2018-05-08T00:44:58.871Z,99659.89
2018-05-08T00:47:33.856Z,99658.27
2018-05-08T00:50:11.916Z,99652.52
2018-05-08T00:52:45.098Z,99655.12
2018-05-08T00:55:17.211Z,99655.94
2018-05-08T00:57:48.742Z,99652.00
2018-05-08T01:00:21.967Z,99645.87
2018-05-08T01:02:53.301Z,99643.11
2018-05-08T01:05:26.495Z,99640.25
2018-05-08T01:08:00.456Z,99642.30
2018-05-08T01:10:34.332Z,99637.38
2018-05-08T01:13:06.767Z,99633.95
2018-05-08T01:15:43.478Z,99641.34
2018-05-08T01:18:19.798Z,99637.54
2018-05-08T01:20:53.815Z,99643.27
2018-05-08T01:23:26.109Z,99639.16
2018-05-08T01:26:04.838Z,99642.19
2018-05-08T01:28:38.342Z,99638.61
2018-05-08T01:31:09.784Z,99629.44
2018-05-08T01:33:43.098Z,99631.38
2018-05-08T01:36:15.757Z,99626.60
2018-05-08T01:38:50.570Z,99629.45
2018-05-08T01:41:24.593Z,99625.36
2018-05-08T01:43:57.219Z,99625.07
2018-05-08T01:46:28.698Z,99628.75
2018-05-08T01:48:59.935Z,99632.73
2018-05-08T01:51:34.288Z,99642.17
2018-05-08T01:54:08.267Z,99634.80
2018-05-08T01:56:40.579Z,99639.45
2018-05-08T01:59:12.074Z,99633.98
2018-05-08T02:01:46.631Z,99633.86
2018-05-08T02:04:20.588Z,99634.40
2018-05-08T02:06:53.040Z,99627.80
2018-05-08T02:09:26.090Z,99632.88
2018-05-08T02:11:58.128Z,99625.50
2018-05-08T02:14:31.305Z,99616.88
2018-05-08T02:17:03.591Z,99619.08
2018-05-08T02:19:39.956Z,99612.09
2018-05-08T02:22:14.371Z,99613.35
2018-05-08T02:24:48.745Z,99608.28
2018-05-08T02:27:22.667Z,99604.33
2018-05-08T02:29:54.591Z,99599.81
2018-05-08T02:32:26.071Z,99602.28
2018-05-08T02:34:58.496Z,99595.86
2018-05-08T02:37:33.303Z,99599.27
2018-05-08T02:40:07.312Z,99598.32
2018-05-08T02:42:40.531Z,99594.20
2018-05-08T02:45:15.407Z,99598.45
2018-05-08T02:47:49.451Z,99591.89
2018-05-08T02:50:23.926Z,99592.58
2018-05-08T02:52:57.266Z,99594.76
2018-05-08T02:55:31.466Z,99589.83
2018-05-08T02:58:05.199Z,99595.58
2018-05-08T03:00:39.017Z,99590.00
2018-05-08T03:03:12.327Z,99590.68
2018-05-08T03:05:44.829Z,99587.09
2018-05-08T03:08:17.878Z,99587.41
2018-05-08T03:10:53.319Z,99589.00
2018-05-08T03:13:27.291Z,99589.67
2018-05-08T03:16:00.999Z,99592.95
2018-05-08T03:18:33.510Z,99592.25
2018-05-08T03:21:04.951Z,99591.05
2018-05-08T03:23:38.165Z,99584.19
2018-05-08T03:26:13.441Z,99591.30
2018-05-08T03:28:45.833Z,99583.23
2018-05-08T03:31:21.318Z,99583.66
2018-05-08T03:33:54.606Z,99579.69
2018-05-08T03:36:29.617Z,99583.37
2018-05-08T03:39:03.704Z,99583.78
2018-05-08T03:41:38.059Z,99575.17
2018-05-08T03:44:10.354Z,99572.70
2018-05-08T03:46:42.640Z,99585.81
2018-05-08T03:49:14.874Z,99574.77
2018-05-08T03:51:46.297Z,99580.89
2018-05-08T03:54:18.841Z,99580.09
2018-05-08T03:56:50.177Z,99585.55
2018-05-08T03:59:21.305Z,99583.91
2018-05-08T04:02:03.676Z,99583.23
2018-05-08T04:05:52.054Z,99583.65
2018-05-08T04:08:24.763Z,99581.59
2018-05-08T04:10:56.987Z,99584.73
2018-05-08T04:13:30.166Z,99583.78
2018-05-08T04:16:02.398Z,99579.97
2018-05-08T04:18:34.091Z,99578.61
2018-05-08T04:21:07.332Z,99575.48
2018-05-08T04:23:39.861Z,99574.70
2018-05-08T04:26:12.151Z,99581.25
2018-05-08T04:28:45.371Z,99573.17
2018-05-08T04:31:17.785Z,99578.62
2018-05-08T04:33:50.935Z,99572.19
2018-05-08T04:36:24.090Z,99571.49
2018-05-08T04:38:56.385Z,99575.53
2018-05-08T04:41:28.666Z,99569.58
2018-05-08T04:44:00.926Z,99574.44
2018-05-08T04:46:33.254Z,99571.33
2018-05-08T04:49:05.543Z,99562.64
2018-05-08T04:51:37.959Z,99572.08
2018-05-08T04:54:10.165Z,99573.09
2018-05-08T04:56:43.121Z,99568.19
2018-05-08T04:59:15.479Z,99575.08
2018-05-08T05:01:49.428Z,99568.44
2018-05-08T05:04:22.646Z,99571.41
2018-05-08T05:06:54.941Z,99571.89
2018-05-08T05:09:26.503Z,99574.83
2018-05-08T05:12:00.479Z,99569.99
2018-05-08T05:14:33.910Z,99575.70
2018-05-08T05:17:07.309Z,99577.80
2018-05-08T05:19:40.555Z,99580.84
2018-05-08T05:22:14.315Z,99580.57
2018-05-08T05:24:46.541Z,99577.44
2018-05-08T05:27:19.039Z,99574.29
2018-05-08T05:29:52.634Z,99571.23
2018-05-08T05:32:26.025Z,99570.57
2018-05-08T05:35:00.431Z,99576.97
2018-05-08T05:37:32.775Z,99563.16
2018-05-08T05:40:05.071Z,99571.70
2018-05-08T05:42:38.341Z,99570.80
2018-05-08T05:45:14.906Z,99567.80
2018-05-08T05:47:47.193Z,99568.40
2018-05-08T05:50:20.559Z,99572.27
2018-05-08T05:52:54.239Z,99571.99
2018-05-08T05:55:26.816Z,99571.06
2018-05-08T05:58:00.871Z,99567.02
2018-05-08T06:00:33.656Z,99571.03
2018-05-08T06:03:07.004Z,99573.26
2018-05-08T06:05:42.278Z,99573.25
2018-05-08T06:08:15.447Z,99571.25
2018-05-08T06:10:48.488Z,99571.94
2018-05-08T06:13:21.759Z,99574.87
2018-05-08T06:15:55.381Z,99587.63
2018-05-08T06:18:27.856Z,99579.84
2018-05-08T06:21:01.066Z,99578.16
2018-05-08T06:23:33.366Z,99578.80
2018-05-08T06:26:04.770Z,99582.16
2018-05-08T06:28:38.596Z,99589.41
2018-05-08T06:31:11.379Z,99584.96
2018-05-08T06:33:44.622Z,99585.80
2018-05-08T06:36:18.306Z,99596.61
2018-05-08T06:38:49.945Z,99571.33
2018-05-08T06:41:22.268Z,99569.45
2018-05-08T06:43:55.527Z,99570.57
2018-05-08T06:46:26.945Z,99566.20
2018-05-08T06:49:00.232Z,99559.55
2018-05-08T06:51:32.236Z,99566.95
2018-05-08T06:54:06.175Z,99561.30
2018-05-08T06:56:41.147Z,99564.95
2018-05-08T06:59:14.467Z,99565.58
2018-05-08T07:01:48.226Z,99571.45
2018-05-08T07:04:21.615Z,99565.34
2018-05-08T07:06:54.867Z,99564.80
2018-05-08T07:09:28.722Z,99562.52
2018-05-08T07:12:02.413Z,99562.36
2018-05-08T07:14:35.709Z,99561.60
2018-05-08T07:17:08.443Z,99563.16
2018-05-08T07:19:41.828Z,99557.14
2018-05-08T07:22:15.282Z,99561.34
2018-05-08T07:24:46.782Z,99548.91
2018-05-08T07:27:19.155Z,99552.10
2018-05-08T07:29:50.774Z,99554.12
2018-05-08T07:32:24.515Z,99549.66
2018-05-08T07:34:57.515Z,99555.27
2018-05-08T07:37:38.601Z,99553.97
2018-05-08T07:40:13.555Z,99555.06
2018-05-08T07:42:46.430Z,99560.04
2018-05-08T07:45:19.871Z,99558.19
2018-05-08T07:47:54.462Z,99558.47
2018-05-08T07:50:27.700Z,99564.20
2018-05-08T07:53:00.143Z,99571.30
2018-05-08T07:55:33.265Z,99564.78
2018-05-08T07:58:07.750Z,99566.68
2018-05-08T08:00:41.713Z,99561.20
2018-05-08T08:03:14.463Z,99556.21
2018-05-08T08:05:48.259Z,99557.30
2018-05-08T08:08:21.533Z,99553.96
2018-05-08T08:10:54.807Z,99556.98
2018-05-08T08:13:28.394Z,99556.27
2018-05-08T08:15:59.763Z,99556.34
2018-05-08T08:18:32.145Z,99560.84
2018-05-08T08:21:06.393Z,99557.31
2018-05-08T08:23:40.418Z,99553.84
2018-05-08T08:26:13.410Z,99543.70
2018-05-08T08:28:46.783Z,99543.86
2018-05-08T08:31:19.426Z,99537.16
2018-05-08T08:33:53.493Z,99529.84
2018-05-08T08:36:25.794Z,99523.54
2018-05-08T08:38:59.990Z,99538.00
2018-05-08T08:41:32.460Z,99520.00
2018-05-08T08:44:07.705Z,99520.87
2018-05-08T08:46:41.363Z,99518.75
2018-05-08T08:49:13.011Z,99507.92
2018-05-08T08:51:44.407Z,99513.11
2018-05-08T08:54:16.782Z,99513.51
2018-05-08T08:56:48.350Z,99514.66
2018-05-08T08:59:22.143Z,99507.38
2018-05-08T09:02:03.685Z,99508.45
2018-05-08T09:04:35.626Z,99504.84
2018-05-08T09:07:08.027Z,99512.95
2018-05-08T09:09:40.367Z,99503.16
2018-05-08T09:12:12.813Z,99503.20
2018-05-08T09:14:47.136Z,99499.78
2018-05-08T09:17:20.867Z,99493.38
2018-05-08T09:19:54.065Z,99493.32
2018-05-08T09:22:26.414Z,99492.56
2018-05-08T09:25:01.187Z,99490.25
2018-05-08T09:27:34.224Z,99483.84
2018-05-08T09:30:10.226Z,99510.00
2018-05-08T09:32:42.854Z,99479.09
2018-05-08T09:35:18.414Z,99488.50
2018-05-08T09:37:51.915Z,99482.14
2018-05-08T09:40:28.385Z,99478.24
2018-05-08T09:43:01.484Z,99473.24
2018-05-08T09:45:32.934Z,99470.83
2018-05-08T09:48:06.971Z,99464.95
2018-05-08T09:50:41.340Z,99465.91
2018-05-08T09:55:42.808Z,99452.59
2018-05-08T09:58:15.079Z,99450.63
2018-05-08T10:00:48.644Z,99444.30
2018-05-08T10:04:19.639Z,99442.62
2018-05-08T10:07:04.402Z,99442.75
2018-05-08T10:09:39.830Z,99438.50
2018-05-08T10:12:12.210Z,99430.41
2018-05-08T10:14:44.652Z,99422.86
2018-05-08T10:17:18.636Z,99427.72
2018-05-08T10:19:50.926Z,99417.09
2018-05-08T10:22:23.290Z,99416.67
2018-05-08T10:24:55.621Z,99409.55
2018-05-08T10:27:28.167Z,99409.57
2018-05-08T10:30:04.657Z,99400.50
2018-05-08T10:32:36.739Z,99400.25
2018-05-08T10:35:11.531Z,99396.14
2018-05-08T10:37:43.570Z,99392.36
2018-05-08T10:40:15.916Z,99387.78
2018-05-08T10:42:49.773Z,99381.95
2018-05-08T10:45:25.479Z,99389.13
2018-05-08T10:47:57.085Z,99375.23
2018-05-08T10:50:30.335Z,99376.48
2018-05-08T10:53:04.520Z,99373.71
2018-05-08T10:55:36.417Z,99371.14
2018-05-08T10:58:12.590Z,99363.77
2018-05-08T11:00:47.267Z,99362.41
2018-05-08T11:03:21.071Z,99356.68
2018-05-08T11:05:54.313Z,99351.91
2018-05-08T11:08:28.231Z,99359.36
2018-05-08T11:11:01.778Z,99352.80
2018-05-08T11:13:35.060Z,99345.14
2018-05-08T11:16:07.331Z,99334.14
2018-05-08T11:18:38.997Z,99338.34
2018-05-08T11:21:12.625Z,99337.16
2018-05-08T11:23:46.641Z,99327.18
2018-05-08T11:26:20.308Z,99330.92
2018-05-08T11:28:52.994Z,99323.64
2018-05-08T11:31:27.042Z,99320.53
2018-05-08T11:34:00.336Z,99316.08
2018-05-08T11:36:33.943Z,99311.43
2018-05-08T11:39:05.978Z,99302.64
2018-05-08T11:41:39.392Z,99299.11
2018-05-08T11:44:12.696Z,99291.16
2018-05-08T11:46:45.856Z,99287.12
2018-05-08T11:49:20.547Z,99295.88
2018-05-08T11:51:53.732Z,99289.23
2018-05-08T11:54:27.832Z,99286.92
2018-05-08T11:57:01.146Z,99278.03
2018-05-08T11:59:34.502Z,99273.25
2018-05-08T12:02:08.019Z,99272.73
2018-05-08T12:04:41.222Z,99261.19
2018-05-08T12:07:14.428Z,99267.03
2018-05-08T12:09:47.926Z,99260.75
2018-05-08T12:12:21.166Z,99260.46
2018-05-08T12:14:54.689Z,99257.55
2018-05-08T12:17:28.716Z,99251.92
2018-05-08T12:20:02.375Z,99239.13
2018-05-08T12:22:36.494Z,99242.88
2018-05-08T12:25:11.879Z,99238.41
2018-05-08T12:27:47.232Z,99229.62
2018-05-08T12:30:21.793Z,99228.48
2018-05-08T12:33:01.840Z,99225.25
2018-05-08T12:35:35.010Z,99227.59
2018-05-08T12:38:09.741Z,99230.34
2018-05-08T12:40:42.910Z,99221.60
2018-05-08T12:43:16.405Z,99219.11
2018-05-08T12:45:49.652Z,99215.71
2018-05-08T12:48:22.978Z,99220.39
2018-05-08T12:50:57.015Z,99196.05
2018-05-08T12:53:30.285Z,99210.42
2018-05-08T12:56:03.788Z,99214.58
2018-05-08T12:58:37.285Z,99211.71
2018-05-08T13:01:12.069Z,99207.25
2018-05-08T13:03:45.292Z,99200.61
2018-05-08T13:06:18.762Z,99202.47
2018-05-08T13:08:51.945Z,99204.05
2018-05-08T13:11:25.377Z,99198.16
2018-05-08T13:13:59.708Z,99190.80
2018-05-08T13:16:32.993Z,99192.91
2018-05-08T13:19:06.878Z,99189.99
2018-05-08T13:21:40.211Z,99197.37
2018-05-08T13:24:13.811Z,99186.61
2018-05-08T13:26:48.074Z,99186.51
2018-05-08T13:29:25.190Z,99188.67
2018-05-08T13:31:58.606Z,99179.33
2018-05-08T13:34:32.919Z,99179.82
2018-05-08T13:37:06.351Z,99177.41
2018-05-08T13:39:39.863Z,99170.50
2018-05-08T13:42:13.082Z,99183.76
2018-05-08T13:44:46.284Z,99181.98
2018-05-08T13:47:19.529Z,99166.23
2018-05-08T13:49:53.099Z,99171.61
2018-05-08T13:52:28.351Z,99168.70
2018-05-08T13:55:02.926Z,99171.31
2018-05-08T13:57:36.647Z,99174.66
2018-05-08T14:00:10.167Z,99160.13
2018-05-08T14:02:45.233Z,99163.40
2018-05-08T14:05:24.564Z,99154.20
2018-05-08T14:07:57.880Z,99154.22
2018-05-08T14:10:31.331Z,99161.08
2018-05-08T14:13:04.916Z,99158.09
2018-05-08T14:15:39.547Z,99156.28
2018-05-08T14:18:12.934Z,99147.05
2018-05-08T14:20:46.112Z,99135.23
2018-05-08T14:23:19.346Z,99134.23
2018-05-08T14:25:53.916Z,99135.02
2018-05-08T14:28:27.823Z,99134.98
2018-05-08T14:31:01.096Z,99127.14
2018-05-08T14:33:35.048Z,99121.08
2018-05-08T14:36:08.620Z,99128.12
2018-05-08T14:38:41.889Z,99123.66
2018-05-08T14:41:15.211Z,99114.45
2018-05-08T14:43:48.372Z,99110.50
2018-05-08T14:46:21.917Z,99111.50
2018-05-08T14:48:55.099Z,99118.65
2018-05-08T14:51:28.357Z,99110.33
2018-05-08T14:54:01.625Z,99118.80
2018-05-08T14:56:35.119Z,99110.92
2018-05-08T14:59:08.454Z,99113.73
2018-05-08T15:01:42.342Z,99105.17
2018-05-08T15:04:15.694Z,99100.92
2018-05-08T15:06:49.287Z,99110.54
2018-05-08T15:09:23.567Z,99103.35
2018-05-08T15:11:57.328Z,99106.97
2018-05-08T15:14:30.845Z,99102.98
2018-05-08T15:17:06.571Z,99103.95
2018-05-08T15:19:39.933Z,99097.34
2018-05-08T15:22:13.688Z,99102.98
2018-05-08T15:24:47.396Z,99094.52
2018-05-08T15:27:20.411Z,99093.54
2018-05-08T15:29:54.359Z,99092.73
2018-05-08T15:32:33.417Z,99094.95
2018-05-08T15:35:06.810Z,99080.53
2018-05-08T15:37:40.060Z,99081.50
2018-05-08T15:40:17.543Z,99081.13
2018-05-08T15:42:50.776Z,99078.70
2018-05-08T15:45:24.133Z,99070.67
2018-05-08T15:47:57.311Z,99073.48
2018-05-08T15:50:32.144Z,99072.25
2018-05-08T15:53:05.352Z,99066.61
2018-05-08T15:55:40.402Z,99061.12
2018-05-08T15:58:25.203Z,99070.20
2018-05-08T16:01:01.896Z,99057.96
2018-05-08T16:03:36.157Z,99061.20
2018-05-08T16:06:09.805Z,99056.86
2018-05-08T16:08:45.210Z,99061.97
2018-05-08T16:11:18.448Z,99057.73
2018-05-08T16:13:51.692Z,99055.75
2018-05-08T16:16:24.911Z,99063.36
2018-05-08T16:18:58.179Z,99056.18
2018-05-08T16:21:32.076Z,99057.41
2018-05-08T16:24:05.385Z,99056.59
2018-05-08T16:26:38.619Z,99061.00
2018-05-08T16:29:12.084Z,99055.63
2018-05-08T16:31:45.720Z,99056.99
2018-05-08T16:34:19.432Z,99057.93
2018-05-08T16:36:52.675Z,99047.83
2018-05-08T16:39:26.440Z,99049.50
2018-05-08T16:41:59.639Z,99051.98
2018-05-08T16:44:33.107Z,99042.42
2018-05-08T16:47:06.278Z,99042.83
2018-05-08T16:49:39.967Z,99046.05
2018-05-08T16:52:13.381Z,99031.59
2018-05-08T16:54:46.576Z,99034.18
2018-05-08T16:57:20.603Z,99036.80
2018-05-08T16:59:53.839Z,99026.76
2018-05-08T17:02:28.112Z,99032.92
2018-05-08T17:05:01.281Z,99028.05
2018-05-08T17:07:35.007Z,99028.73
2018-05-08T17:10:08.829Z,99033.59
2018-05-08T17:12:42.300Z,99032.22
2018-05-08T17:15:16.694Z,99027.02
2018-05-08T17:17:50.842Z,99035.04
2018-05-08T17:20:24.164Z,99030.81
2018-05-08T17:22:57.644Z,99031.61
2018-05-08T17:25:32.184Z,99026.36
2018-05-08T17:28:05.489Z,99030.90
2018-05-08T17:30:38.760Z,99025.48
2018-05-08T17:33:12.221Z,99032.30
2018-05-08T17:35:46.624Z,99026.91
2018-05-08T17:38:19.804Z,99020.66
2018-05-08T17:40:52.967Z,99025.89
2018-05-08T17:43:26.211Z,99027.19
2018-05-08T17:45:59.998Z,99019.76
2018-05-08T17:48:34.182Z,99028.75
2018-05-08T17:51:11.212Z,99027.58
2018-05-08T17:53:45.273Z,99023.30
2018-05-08T17:56:18.940Z,99023.97
2018-05-08T17:58:53.397Z,99017.44
2018-05-08T18:01:27.902Z,99017.26
2018-05-08T18:04:01.466Z,99015.31
2018-05-08T18:06:35.784Z,99020.77
2018-05-08T18:09:09.172Z,99012.80
2018-05-08T18:11:42.891Z,99018.70
2018-05-08T18:14:15.539Z,99006.36
2018-05-08T18:16:48.842Z,99016.66
2018-05-08T18:19:22.103Z,99012.78
2018-05-08T18:21:55.616Z,99014.64
2018-05-08T18:24:28.796Z,99005.74
2018-05-08T18:27:02.814Z,98997.86
2018-05-08T18:29:36.107Z,99006.53
2018-05-08T18:32:11.810Z,99008.86
2018-05-08T18:34:45.027Z,99006.58
2018-05-08T18:37:19.088Z,99011.97
2018-05-08T18:39:54.007Z,99013.42
2018-05-08T18:42:29.322Z,99006.78
2018-05-08T18:45:05.783Z,99013.98
2018-05-08T18:47:40.290Z,99014.05
2018-05-08T18:50:11.778Z,99009.91
2018-05-08T18:52:45.858Z,99015.41
2018-05-08T18:55:19.992Z,99017.13
2018-05-08T18:57:51.407Z,99012.49
2018-05-08T19:00:22.821Z,99021.19
2018-05-08T19:02:54.407Z,99020.45
2018-05-08T19:05:26.820Z,99022.58
2018-05-08T19:07:59.255Z,99025.37
2018-05-08T19:10:30.597Z,99025.90
2018-05-08T19:13:06.731Z,99033.48
2018-05-08T19:15:42.187Z,99029.80
2018-05-08T19:18:13.699Z,99033.84
2018-05-08T19:20:45.105Z,99035.52
2018-05-08T19:23:16.553Z,99032.39
2018-05-08T19:25:48.220Z,99032.42
2018-05-08T19:28:24.639Z,99030.03
2018-05-08T19:30:56.944Z,99028.67
2018-05-08T19:33:28.694Z,99027.99
2018-05-08T19:38:07.634Z,99030.35
2018-05-08T19:40:39.209Z,99025.78
2018-05-08T19:43:11.579Z,99028.47
2018-05-08T19:45:43.059Z,99021.05
2018-05-08T19:48:15.315Z,99024.69
2018-05-08T19:50:49.488Z,99020.94
2018-05-08T19:53:20.920Z,99015.89
2018-05-08T19:55:52.450Z,99013.53
2018-05-08T19:58:24.191Z,99019.04
2018-05-08T20:00:56.252Z,99016.80
2018-05-08T20:03:27.425Z,99013.77
2018-05-08T20:05:58.766Z,99014.95
2018-05-08T20:08:31.140Z,99011.13
2018-05-08T20:11:03.936Z,99012.09
2018-05-08T20:13:36.298Z,99015.41
2018-05-08T20:16:08.730Z,99013.67
2018-05-08T20:18:41.724Z,99022.67
2018-05-08T20:21:13.985Z,99014.06
2018-05-08T20:23:46.327Z,99009.45
2018-05-08T20:26:19.434Z,99016.41
2018-05-08T20:28:53.161Z,99016.33
2018-05-08T20:31:24.623Z,99015.86
2018-05-08T20:33:55.998Z,99016.42
2018-05-08T20:36:30.499Z,99009.92
2018-05-08T20:39:02.927Z,99009.91
2018-05-08T20:41:35.274Z,99007.53
2018-05-08T20:44:07.983Z,99007.84
2018-05-08T20:46:39.358Z,99013.59
2018-05-08T20:49:12.448Z,99009.33
2018-05-08T20:51:44.075Z,99011.86
2018-05-08T20:54:16.291Z,99011.11
2018-05-08T20:56:47.678Z,99010.25
2018-05-08T20:59:20.032Z,99016.13
2018-05-08T21:01:52.443Z,99008.50
2018-05-08T21:04:23.819Z,99011.63
2018-05-08T21:06:56.522Z,99016.87
2018-05-08T21:09:29.423Z,99013.27
2018-05-08T21:12:00.875Z,99014.92
2018-05-08T21:14:33.491Z,99016.22
2018-05-08T21:17:06.378Z,99013.33
2018-05-08T21:19:38.411Z,99015.11
2018-05-08T21:22:11.169Z,99022.25
2018-05-08T21:24:43.547Z,99024.22
2018-05-08T21:27:15.756Z,99024.70
2018-05-08T21:29:52.086Z,99016.05
2018-05-08T21:32:23.848Z,99018.06
2018-05-08T21:34:56.204Z,99023.22
2018-05-08T21:37:28.549Z,99015.64
2018-05-08T21:40:00.042Z,99026.79
2018-05-08T21:42:32.500Z,99019.54
2018-05-08T21:45:08.286Z,99019.39
2018-05-08T21:47:39.931Z,99022.73
2018-05-08T21:50:12.239Z,99018.02
2018-05-08T21:52:45.288Z,99015.59
2018-05-08T21:55:17.582Z,99020.02
2018-05-08T21:57:49.935Z,99020.36
2018-05-08T22:00:23.880Z,99021.58
2018-05-08T22:02:58.044Z,99016.97
2018-05-08T22:05:30.616Z,99024.33
2018-05-08T22:08:03.109Z,99028.23
2018-05-08T22:10:37.188Z,99026.98
2018-05-08T22:13:12.939Z,99037.75
2018-05-08T22:15:44.341Z,99038.09
2018-05-08T22:18:16.701Z,99043.09
2018-05-08T22:20:48.218Z,99039.02
2018-05-08T22:23:20.543Z,99041.07
2018-05-08T22:25:52.464Z,99035.58
2018-05-08T22:28:23.907Z,99034.83
2018-05-08T22:30:55.747Z,99040.18
2018-05-08T22:33:28.109Z,99035.80
2018-05-08T22:36:00.966Z,99035.70
2018-05-08T22:38:32.467Z,99034.22
2018-05-08T22:41:03.871Z,99026.66
2018-05-08T22:43:35.959Z,99027.98
2018-05-08T22:46:07.335Z,99030.11
2018-05-08T22:48:38.793Z,99026.89
2018-05-08T22:51:11.145Z,99028.58
2018-05-08T22:53:43.124Z,99020.80
2018-05-08T22:56:15.072Z,99023.35
2018-05-08T22:58:46.435Z,99023.71
2018-05-08T23:01:19.474Z,99030.34
2018-05-08T23:03:51.751Z,99029.95
2018-05-08T23:06:23.611Z,99025.22
2018-05-08T23:08:57.345Z,99098.27
2018-05-08T23:11:29.050Z,99029.09
2018-05-08T23:14:01.321Z,99023.86
2018-05-08T23:16:34.246Z,99026.05
2018-05-08T23:19:06.231Z,99019.59
2018-05-08T23:21:38.314Z,99023.92
2018-05-08T23:24:10.144Z,99021.26
2018-05-08T23:26:41.973Z,99013.70
2018-05-08T23:29:13.722Z,99016.04
2018-05-08T23:31:45.139Z,99020.63
2018-05-08T23:34:16.998Z,99012.94
2018-05-08T23:36:49.057Z,99014.02
2018-05-08T23:39:20.657Z,99012.56
2018-05-08T23:41:52.325Z,99012.48
2018-05-08T23:44:23.672Z,99009.05
2018-05-08T23:46:55.049Z,99017.95
2018-05-08T23:49:26.425Z,99019.03
2018-05-08T23:51:58.298Z,99017.34
2018-05-08T23:56:53.755Z,99013.60
2018-05-08T23:59:25.408Z,99008.67
